sensor_id;sensor_type;location;lat;lon;timestamp;P1;durP1;ratioP1;P2;durP2;ratioP2
52202;SDS011;38173;52.850;6.970;2024-03-08T00:02:40;1.08;;;0.40;;
52202;SDS011;38173;52.850;6.970;2024-03-08T00:05:07;0.60;;;0.35;;
52202;SDS011;38173;52.850;6.970;2024-03-08T00:07:35;1.17;;;0.50;;
52202;SDS011;38173;52.850;6.970;2024-03-08T00:10:02;0.65;;;0.40;;
52202;SDS011;38173;52.850;6.970;2024-03-08T00:12:29;0.20;;;0.20;;
52202;SDS011;38173;52.850;6.970;2024-03-08T00:14:55;0.35;;;0.35;;
52202;SDS011;38173;52.850;6.970;2024-03-08T00:17:21;0.40;;;0.30;;
52202;SDS011;38173;52.850;6.970;2024-03-08T00:19:53;0.40;;;0.30;;
52202;SDS011;38173;52.850;6.970;2024-03-08T00:22:19;0.60;;;0.35;;
52202;SDS011;38173;52.850;6.970;2024-03-08T00:24:45;0.40;;;0.28;;
52202;SDS011;38173;52.850;6.970;2024-03-08T00:27:10;1.50;;;0.68;;
52202;SDS011;38173;52.850;6.970;2024-03-08T00:29:36;1.08;;;0.47;;
52202;SDS011;38173;52.850;6.970;2024-03-08T00:32:05;0.30;;;0.30;;
52202;SDS011;38173;52.850;6.970;2024-03-08T00:34:34;0.70;;;0.38;;
52202;SDS011;38173;52.850;6.970;2024-03-08T00:37:02;0.90;;;0.40;;
52202;SDS011;38173;52.850;6.970;2024-03-08T00:39:28;0.22;;;0.22;;
52202;SDS011;38173;52.850;6.970;2024-03-08T00:41:54;0.52;;;0.32;;
52202;SDS011;38173;52.850;6.970;2024-03-08T00:44:19;0.20;;;0.20;;
52202;SDS011;38173;52.850;6.970;2024-03-08T00:46:45;0.30;;;0.30;;
52202;SDS011;38173;52.850;6.970;2024-03-08T00:49:11;0.45;;;0.22;;
52202;SDS011;38173;52.850;6.970;2024-03-08T00:51:37;0.20;;;0.20;;
52202;SDS011;38173;52.850;6.970;2024-03-08T00:54:03;0.20;;;0.20;;
52202;SDS011;38173;52.850;6.970;2024-03-08T00:56:29;0.30;;;0.30;;
52202;SDS011;38173;52.850;6.970;2024-03-08T00:58:55;0.38;;;0.32;;
52202;SDS011;38173;52.850;6.970;2024-03-08T01:01:20;0.55;;;0.38;;
52202;SDS011;38173;52.850;6.970;2024-03-08T01:03:46;0.30;;;0.30;;
52202;SDS011;38173;52.850;6.970;2024-03-08T01:06:12;1.73;;;0.60;;
52202;SDS011;38173;52.850;6.970;2024-03-08T01:08:37;1.40;;;0.43;;
52202;SDS011;38173;52.850;6.970;2024-03-08T01:11:05;0.20;;;0.20;;
52202;SDS011;38173;52.850;6.970;2024-03-08T01:13:31;1.10;;;0.60;;
52202;SDS011;38173;52.850;6.970;2024-03-08T01:15:57;1.08;;;0.52;;
52202;SDS011;38173;52.850;6.970;2024-03-08T01:18:22;0.80;;;0.38;;
52202;SDS011;38173;52.850;6.970;2024-03-08T01:20:48;0.65;;;0.45;;
52202;SDS011;38173;52.850;6.970;2024-03-08T01:23:14;0.52;;;0.40;;
52202;SDS011;38173;52.850;6.970;2024-03-08T01:25:39;0.70;;;0.30;;
52202;SDS011;38173;52.850;6.970;2024-03-08T01:28:06;0.30;;;0.30;;
52202;SDS011;38173;52.850;6.970;2024-03-08T01:30:32;1.40;;;0.47;;
52202;SDS011;38173;52.850;6.970;2024-03-08T01:33:00;2.10;;;0.70;;
52202;SDS011;38173;52.850;6.970;2024-03-08T01:35:25;2.50;;;0.70;;
52202;SDS011;38173;52.850;6.970;2024-03-08T01:37:52;1.65;;;0.68;;
52202;SDS011;38173;52.850;6.970;2024-03-08T01:40:18;0.93;;;0.38;;
52202;SDS011;38173;52.850;6.970;2024-03-08T01:42:44;0.90;;;0.57;;
52202;SDS011;38173;52.850;6.970;2024-03-08T01:45:09;2.17;;;0.55;;
52202;SDS011;38173;52.850;6.970;2024-03-08T01:47:35;1.58;;;0.70;;
52202;SDS011;38173;52.850;6.970;2024-03-08T01:50:02;1.10;;;0.57;;
52202;SDS011;38173;52.850;6.970;2024-03-08T01:52:29;1.67;;;0.60;;
52202;SDS011;38173;52.850;6.970;2024-03-08T01:54:57;2.42;;;0.50;;
52202;SDS011;38173;52.850;6.970;2024-03-08T01:57:26;0.50;;;0.32;;
52202;SDS011;38173;52.850;6.970;2024-03-08T01:59:53;1.08;;;0.68;;
52202;SDS011;38173;52.850;6.970;2024-03-08T02:02:20;0.88;;;0.32;;
52202;SDS011;38173;52.850;6.970;2024-03-08T02:04:47;0.35;;;0.30;;
52202;SDS011;38173;52.850;6.970;2024-03-08T02:07:13;1.52;;;0.40;;
52202;SDS011;38173;52.850;6.970;2024-03-08T02:09:39;2.67;;;1.08;;
52202;SDS011;38173;52.850;6.970;2024-03-08T02:12:05;2.30;;;0.60;;
52202;SDS011;38173;52.850;6.970;2024-03-08T02:14:33;3.75;;;1.38;;
52202;SDS011;38173;52.850;6.970;2024-03-08T02:17:02;1.48;;;0.68;;
52202;SDS011;38173;52.850;6.970;2024-03-08T02:19:28;2.75;;;1.17;;
52202;SDS011;38173;52.850;6.970;2024-03-08T02:21:53;1.90;;;0.93;;
52202;SDS011;38173;52.850;6.970;2024-03-08T02:24:20;2.13;;;1.00;;
52202;SDS011;38173;52.850;6.970;2024-03-08T02:26:46;1.83;;;0.80;;
52202;SDS011;38173;52.850;6.970;2024-03-08T02:29:12;2.58;;;1.17;;
52202;SDS011;38173;52.850;6.970;2024-03-08T02:31:39;3.40;;;1.45;;
52202;SDS011;38173;52.850;6.970;2024-03-08T02:34:05;1.00;;;0.52;;
52202;SDS011;38173;52.850;6.970;2024-03-08T02:36:31;1.90;;;0.75;;
52202;SDS011;38173;52.850;6.970;2024-03-08T02:39:01;1.77;;;0.90;;
52202;SDS011;38173;52.850;6.970;2024-03-08T02:41:28;1.40;;;0.90;;
52202;SDS011;38173;52.850;6.970;2024-03-08T02:43:53;2.78;;;0.93;;
52202;SDS011;38173;52.850;6.970;2024-03-08T02:46:20;2.15;;;1.00;;
52202;SDS011;38173;52.850;6.970;2024-03-08T02:48:46;2.60;;;1.30;;
52202;SDS011;38173;52.850;6.970;2024-03-08T02:51:12;1.98;;;0.90;;
52202;SDS011;38173;52.850;6.970;2024-03-08T02:53:38;3.67;;;1.50;;
52202;SDS011;38173;52.850;6.970;2024-03-08T02:56:04;4.25;;;1.10;;
52202;SDS011;38173;52.850;6.970;2024-03-08T02:58:34;3.38;;;1.27;;
52202;SDS011;38173;52.850;6.970;2024-03-08T03:00:59;6.22;;;2.38;;
52202;SDS011;38173;52.850;6.970;2024-03-08T03:03:25;6.57;;;1.63;;
52202;SDS011;38173;52.850;6.970;2024-03-08T03:05:51;3.03;;;1.10;;
52202;SDS011;38173;52.850;6.970;2024-03-08T03:08:21;4.30;;;1.42;;
52202;SDS011;38173;52.850;6.970;2024-03-08T03:10:46;5.05;;;1.80;;
52202;SDS011;38173;52.850;6.970;2024-03-08T03:13:12;2.60;;;1.00;;
52202;SDS011;38173;52.850;6.970;2024-03-08T03:15:39;3.33;;;1.70;;
52202;SDS011;38173;52.850;6.970;2024-03-08T03:18:07;2.90;;;1.20;;
52202;SDS011;38173;52.850;6.970;2024-03-08T03:20:33;3.92;;;1.30;;
52202;SDS011;38173;52.850;6.970;2024-03-08T03:23:05;4.53;;;1.60;;
52202;SDS011;38173;52.850;6.970;2024-03-08T03:25:33;3.17;;;1.27;;
52202;SDS011;38173;52.850;6.970;2024-03-08T03:28:00;3.33;;;1.38;;
52202;SDS011;38173;52.850;6.970;2024-03-08T03:30:26;4.80;;;1.63;;
52202;SDS011;38173;52.850;6.970;2024-03-08T03:32:56;2.88;;;1.15;;
52202;SDS011;38173;52.850;6.970;2024-03-08T03:35:25;3.33;;;1.23;;
52202;SDS011;38173;52.850;6.970;2024-03-08T03:37:51;2.22;;;0.90;;
52202;SDS011;38173;52.850;6.970;2024-03-08T03:40:30;4.55;;;1.95;;
52202;SDS011;38173;52.850;6.970;2024-03-08T03:42:57;2.78;;;1.30;;
52202;SDS011;38173;52.850;6.970;2024-03-08T03:45:23;2.78;;;1.27;;
52202;SDS011;38173;52.850;6.970;2024-03-08T03:47:49;2.83;;;1.25;;
52202;SDS011;38173;52.850;6.970;2024-03-08T03:50:15;4.97;;;1.30;;
52202;SDS011;38173;52.850;6.970;2024-03-08T03:52:41;2.83;;;1.38;;
52202;SDS011;38173;52.850;6.970;2024-03-08T03:55:07;1.60;;;0.90;;
52202;SDS011;38173;52.850;6.970;2024-03-08T03:57:33;3.22;;;1.25;;
52202;SDS011;38173;52.850;6.970;2024-03-08T03:59:59;3.08;;;1.33;;
52202;SDS011;38173;52.850;6.970;2024-03-08T04:02:25;4.45;;;1.40;;
52202;SDS011;38173;52.850;6.970;2024-03-08T04:04:52;2.58;;;1.02;;
52202;SDS011;38173;52.850;6.970;2024-03-08T04:07:19;2.58;;;1.08;;
52202;SDS011;38173;52.850;6.970;2024-03-08T04:09:45;3.35;;;1.15;;
52202;SDS011;38173;52.850;6.970;2024-03-08T04:12:11;1.88;;;0.80;;
52202;SDS011;38173;52.850;6.970;2024-03-08T04:14:38;3.53;;;1.30;;
52202;SDS011;38173;52.850;6.970;2024-03-08T04:17:06;2.83;;;0.80;;
52202;SDS011;38173;52.850;6.970;2024-03-08T04:19:34;3.38;;;1.15;;
52202;SDS011;38173;52.850;6.970;2024-03-08T04:22:00;2.70;;;1.15;;
52202;SDS011;38173;52.850;6.970;2024-03-08T04:24:26;2.13;;;0.95;;
52202;SDS011;38173;52.850;6.970;2024-03-08T04:26:52;1.88;;;0.90;;
52202;SDS011;38173;52.850;6.970;2024-03-08T04:29:18;2.38;;;1.13;;
52202;SDS011;38173;52.850;6.970;2024-03-08T04:31:44;2.13;;;0.70;;
52202;SDS011;38173;52.850;6.970;2024-03-08T04:34:10;1.05;;;0.65;;
52202;SDS011;38173;52.850;6.970;2024-03-08T04:36:36;1.52;;;0.85;;
52202;SDS011;38173;52.850;6.970;2024-03-08T04:39:01;1.90;;;0.88;;
52202;SDS011;38173;52.850;6.970;2024-03-08T04:41:28;2.55;;;1.02;;
52202;SDS011;38173;52.850;6.970;2024-03-08T04:43:55;1.95;;;0.90;;
52202;SDS011;38173;52.850;6.970;2024-03-08T04:46:23;2.72;;;1.10;;
52202;SDS011;38173;52.850;6.970;2024-03-08T04:48:49;3.45;;;1.20;;
52202;SDS011;38173;52.850;6.970;2024-03-08T04:51:14;3.03;;;1.00;;
52202;SDS011;38173;52.850;6.970;2024-03-08T04:53:40;2.78;;;1.15;;
52202;SDS011;38173;52.850;6.970;2024-03-08T04:56:06;3.75;;;1.58;;
52202;SDS011;38173;52.850;6.970;2024-03-08T04:58:33;2.35;;;0.93;;
52202;SDS011;38173;52.850;6.970;2024-03-08T05:01:01;0.60;;;0.50;;
52202;SDS011;38173;52.850;6.970;2024-03-08T05:03:27;3.25;;;1.27;;
52202;SDS011;38173;52.850;6.970;2024-03-08T05:05:53;3.30;;;1.00;;
52202;SDS011;38173;52.850;6.970;2024-03-08T05:08:19;2.03;;;1.05;;
52202;SDS011;38173;52.850;6.970;2024-03-08T05:10:45;4.18;;;1.35;;
52202;SDS011;38173;52.850;6.970;2024-03-08T05:13:11;2.03;;;0.80;;
52202;SDS011;38173;52.850;6.970;2024-03-08T05:15:38;4.78;;;1.30;;
52202;SDS011;38173;52.850;6.970;2024-03-08T05:18:04;0.80;;;0.50;;
52202;SDS011;38173;52.850;6.970;2024-03-08T05:20:30;3.60;;;1.38;;
52202;SDS011;38173;52.850;6.970;2024-03-08T05:22:56;2.22;;;0.93;;
52202;SDS011;38173;52.850;6.970;2024-03-08T05:25:25;1.63;;;0.70;;
52202;SDS011;38173;52.850;6.970;2024-03-08T05:27:51;1.73;;;0.80;;
52202;SDS011;38173;52.850;6.970;2024-03-08T05:30:17;2.03;;;0.93;;
52202;SDS011;38173;52.850;6.970;2024-03-08T05:32:44;1.52;;;0.77;;
52202;SDS011;38173;52.850;6.970;2024-03-08T05:35:10;3.45;;;1.17;;
52202;SDS011;38173;52.850;6.970;2024-03-08T05:37:37;3.15;;;1.10;;
52202;SDS011;38173;52.850;6.970;2024-03-08T05:40:04;3.47;;;1.38;;
52202;SDS011;38173;52.850;6.970;2024-03-08T05:42:34;2.97;;;1.00;;
52202;SDS011;38173;52.850;6.970;2024-03-08T05:45:01;2.60;;;1.10;;
52202;SDS011;38173;52.850;6.970;2024-03-08T05:47:31;4.93;;;1.70;;
52202;SDS011;38173;52.850;6.970;2024-03-08T05:50:00;4.75;;;1.98;;
52202;SDS011;38173;52.850;6.970;2024-03-08T05:52:26;2.28;;;0.98;;
52202;SDS011;38173;52.850;6.970;2024-03-08T05:54:52;3.88;;;1.55;;
52202;SDS011;38173;52.850;6.970;2024-03-08T05:57:18;3.85;;;1.38;;
52202;SDS011;38173;52.850;6.970;2024-03-08T05:59:44;6.80;;;1.77;;
52202;SDS011;38173;52.850;6.970;2024-03-08T06:02:09;4.43;;;1.52;;
52202;SDS011;38173;52.850;6.970;2024-03-08T06:04:35;2.83;;;1.10;;
52202;SDS011;38173;52.850;6.970;2024-03-08T06:07:01;3.28;;;1.17;;
52202;SDS011;38173;52.850;6.970;2024-03-08T06:09:28;4.10;;;1.88;;
52202;SDS011;38173;52.850;6.970;2024-03-08T06:11:55;4.22;;;1.50;;
52202;SDS011;38173;52.850;6.970;2024-03-08T06:14:22;3.50;;;1.55;;
52202;SDS011;38173;52.850;6.970;2024-03-08T06:16:48;5.03;;;1.50;;
52202;SDS011;38173;52.850;6.970;2024-03-08T06:19:15;2.63;;;1.25;;
52202;SDS011;38173;52.850;6.970;2024-03-08T06:21:41;3.15;;;1.10;;
52202;SDS011;38173;52.850;6.970;2024-03-08T06:24:07;3.00;;;1.00;;
52202;SDS011;38173;52.850;6.970;2024-03-08T06:26:32;3.38;;;1.33;;
52202;SDS011;38173;52.850;6.970;2024-03-08T06:28:59;1.92;;;1.10;;
52202;SDS011;38173;52.850;6.970;2024-03-08T06:31:24;3.50;;;1.33;;
52202;SDS011;38173;52.850;6.970;2024-03-08T06:33:50;3.47;;;1.60;;
52202;SDS011;38173;52.850;6.970;2024-03-08T06:36:16;4.88;;;2.00;;
52202;SDS011;38173;52.850;6.970;2024-03-08T06:38:45;4.47;;;1.63;;
52202;SDS011;38173;52.850;6.970;2024-03-08T06:41:11;3.90;;;1.63;;
52202;SDS011;38173;52.850;6.970;2024-03-08T06:43:46;3.67;;;1.50;;
52202;SDS011;38173;52.850;6.970;2024-03-08T06:46:14;6.70;;;1.90;;
52202;SDS011;38173;52.850;6.970;2024-03-08T06:48:40;2.25;;;1.10;;
52202;SDS011;38173;52.850;6.970;2024-03-08T06:51:06;5.68;;;1.55;;
52202;SDS011;38173;52.850;6.970;2024-03-08T06:53:32;5.05;;;1.73;;
52202;SDS011;38173;52.850;6.970;2024-03-08T06:56:00;5.15;;;1.88;;
52202;SDS011;38173;52.850;6.970;2024-03-08T06:58:26;5.05;;;2.10;;
52202;SDS011;38173;52.850;6.970;2024-03-08T07:00:53;2.70;;;0.95;;
52202;SDS011;38173;52.850;6.970;2024-03-08T07:03:19;4.68;;;1.63;;
52202;SDS011;38173;52.850;6.970;2024-03-08T07:05:47;1.42;;;0.90;;
52202;SDS011;38173;52.850;6.970;2024-03-08T07:08:13;5.95;;;1.80;;
52202;SDS011;38173;52.850;6.970;2024-03-08T07:10:39;3.08;;;1.25;;
52202;SDS011;38173;52.850;6.970;2024-03-08T07:13:07;5.40;;;2.10;;
52202;SDS011;38173;52.850;6.970;2024-03-08T07:15:35;4.15;;;1.42;;
52202;SDS011;38173;52.850;6.970;2024-03-08T07:18:01;4.88;;;1.50;;
52202;SDS011;38173;52.850;6.970;2024-03-08T07:20:27;3.92;;;1.58;;
52202;SDS011;38173;52.850;6.970;2024-03-08T07:22:53;3.38;;;1.40;;
52202;SDS011;38173;52.850;6.970;2024-03-08T07:25:19;4.00;;;1.33;;
52202;SDS011;38173;52.850;6.970;2024-03-08T07:27:50;5.25;;;1.75;;
52202;SDS011;38173;52.850;6.970;2024-03-08T07:30:17;2.33;;;1.23;;
52202;SDS011;38173;52.850;6.970;2024-03-08T07:33:01;5.22;;;1.88;;
52202;SDS011;38173;52.850;6.970;2024-03-08T07:35:30;4.55;;;1.55;;
52202;SDS011;38173;52.850;6.970;2024-03-08T07:37:56;3.13;;;1.27;;
52202;SDS011;38173;52.850;6.970;2024-03-08T07:40:22;3.35;;;1.33;;
52202;SDS011;38173;52.850;6.970;2024-03-08T07:42:48;3.75;;;1.40;;
52202;SDS011;38173;52.850;6.970;2024-03-08T07:45:15;4.40;;;1.38;;
52202;SDS011;38173;52.850;6.970;2024-03-08T07:47:41;4.82;;;1.63;;
52202;SDS011;38173;52.850;6.970;2024-03-08T07:50:08;4.38;;;1.63;;
52202;SDS011;38173;52.850;6.970;2024-03-08T07:52:34;4.00;;;1.40;;
52202;SDS011;38173;52.850;6.970;2024-03-08T07:55:00;4.18;;;1.80;;
52202;SDS011;38173;52.850;6.970;2024-03-08T07:57:26;4.13;;;1.67;;
52202;SDS011;38173;52.850;6.970;2024-03-08T07:59:52;4.38;;;1.67;;
52202;SDS011;38173;52.850;6.970;2024-03-08T08:02:18;8.55;;;2.92;;
52202;SDS011;38173;52.850;6.970;2024-03-08T08:04:43;6.15;;;2.22;;
52202;SDS011;38173;52.850;6.970;2024-03-08T08:07:16;4.32;;;1.73;;
52202;SDS011;38173;52.850;6.970;2024-03-08T08:09:42;9.68;;;2.95;;
52202;SDS011;38173;52.850;6.970;2024-03-08T08:12:08;5.90;;;2.60;;
52202;SDS011;38173;52.850;6.970;2024-03-08T08:14:37;6.70;;;2.60;;
52202;SDS011;38173;52.850;6.970;2024-03-08T08:17:04;6.32;;;2.80;;
52202;SDS011;38173;52.850;6.970;2024-03-08T08:19:30;6.55;;;2.25;;
52202;SDS011;38173;52.850;6.970;2024-03-08T08:21:57;5.82;;;2.47;;
52202;SDS011;38173;52.850;6.970;2024-03-08T08:24:24;6.03;;;2.22;;
52202;SDS011;38173;52.850;6.970;2024-03-08T08:26:50;8.63;;;3.22;;
52202;SDS011;38173;52.850;6.970;2024-03-08T08:29:15;5.22;;;1.92;;
52202;SDS011;38173;52.850;6.970;2024-03-08T08:31:41;7.82;;;2.63;;
52202;SDS011;38173;52.850;6.970;2024-03-08T08:34:09;8.10;;;2.40;;
52202;SDS011;38173;52.850;6.970;2024-03-08T08:36:37;8.23;;;3.17;;
52202;SDS011;38173;52.850;6.970;2024-03-08T08:39:04;6.13;;;2.92;;
52202;SDS011;38173;52.850;6.970;2024-03-08T08:41:34;7.43;;;2.63;;
52202;SDS011;38173;52.850;6.970;2024-03-08T08:44:01;6.75;;;2.65;;
52202;SDS011;38173;52.850;6.970;2024-03-08T08:46:26;6.28;;;2.75;;
52202;SDS011;38173;52.850;6.970;2024-03-08T08:48:52;7.25;;;2.55;;
52202;SDS011;38173;52.850;6.970;2024-03-08T08:51:18;8.30;;;2.65;;
52202;SDS011;38173;52.850;6.970;2024-03-08T08:53:44;5.45;;;2.45;;
52202;SDS011;38173;52.850;6.970;2024-03-08T08:56:10;7.30;;;3.00;;
52202;SDS011;38173;52.850;6.970;2024-03-08T08:58:38;8.82;;;3.13;;
52202;SDS011;38173;52.850;6.970;2024-03-08T09:01:08;15.13;;;3.65;;
52202;SDS011;38173;52.850;6.970;2024-03-08T09:03:35;7.47;;;3.45;;
52202;SDS011;38173;52.850;6.970;2024-03-08T09:06:02;7.22;;;2.63;;
52202;SDS011;38173;52.850;6.970;2024-03-08T09:08:29;6.80;;;2.63;;
52202;SDS011;38173;52.850;6.970;2024-03-08T09:10:55;5.57;;;2.78;;
52202;SDS011;38173;52.850;6.970;2024-03-08T09:13:21;7.32;;;2.83;;
52202;SDS011;38173;52.850;6.970;2024-03-08T09:15:46;7.25;;;3.50;;
52202;SDS011;38173;52.850;6.970;2024-03-08T09:18:12;7.78;;;3.17;;
52202;SDS011;38173;52.850;6.970;2024-03-08T09:20:38;7.20;;;2.80;;
52202;SDS011;38173;52.850;6.970;2024-03-08T09:23:06;7.97;;;3.28;;
52202;SDS011;38173;52.850;6.970;2024-03-08T09:25:33;6.80;;;2.50;;
52202;SDS011;38173;52.850;6.970;2024-03-08T09:27:59;7.70;;;3.20;;
52202;SDS011;38173;52.850;6.970;2024-03-08T09:30:25;7.10;;;3.17;;
52202;SDS011;38173;52.850;6.970;2024-03-08T09:32:50;7.07;;;3.00;;
52202;SDS011;38173;52.850;6.970;2024-03-08T09:35:16;9.52;;;3.30;;
52202;SDS011;38173;52.850;6.970;2024-03-08T09:37:42;7.28;;;2.92;;
52202;SDS011;38173;52.850;6.970;2024-03-08T09:40:08;7.53;;;2.80;;
52202;SDS011;38173;52.850;6.970;2024-03-08T09:42:40;6.43;;;2.78;;
52202;SDS011;38173;52.850;6.970;2024-03-08T09:45:10;7.07;;;2.92;;
52202;SDS011;38173;52.850;6.970;2024-03-08T09:47:40;7.20;;;2.58;;
52202;SDS011;38173;52.850;6.970;2024-03-08T09:50:07;7.35;;;3.38;;
52202;SDS011;38173;52.850;6.970;2024-03-08T09:52:37;8.57;;;3.65;;
52202;SDS011;38173;52.850;6.970;2024-03-08T09:55:06;9.85;;;4.15;;
52202;SDS011;38173;52.850;6.970;2024-03-08T09:57:33;10.00;;;3.30;;
52202;SDS011;38173;52.850;6.970;2024-03-08T10:00:00;9.23;;;3.63;;
52202;SDS011;38173;52.850;6.970;2024-03-08T10:02:26;5.72;;;2.55;;
52202;SDS011;38173;52.850;6.970;2024-03-08T10:04:51;9.77;;;2.95;;
52202;SDS011;38173;52.850;6.970;2024-03-08T10:07:18;5.43;;;2.50;;
52202;SDS011;38173;52.850;6.970;2024-03-08T10:09:44;7.38;;;2.60;;
52202;SDS011;38173;52.850;6.970;2024-03-08T10:14:45;6.70;;;2.05;;
52202;SDS011;38173;52.850;6.970;2024-03-08T10:17:11;6.43;;;3.50;;
52202;SDS011;38173;52.850;6.970;2024-03-08T10:19:37;8.05;;;3.75;;
52202;SDS011;38173;52.850;6.970;2024-03-08T10:22:04;8.38;;;3.85;;
52202;SDS011;38173;52.850;6.970;2024-03-08T10:24:30;7.10;;;2.80;;
52202;SDS011;38173;52.850;6.970;2024-03-08T10:27:01;7.07;;;3.08;;
52202;SDS011;38173;52.850;6.970;2024-03-08T10:29:30;6.60;;;2.95;;
52202;SDS011;38173;52.850;6.970;2024-03-08T10:31:57;6.72;;;2.78;;
52202;SDS011;38173;52.850;6.970;2024-03-08T10:34:23;6.82;;;3.35;;
52202;SDS011;38173;52.850;6.970;2024-03-08T10:36:50;6.00;;;2.28;;
52202;SDS011;38173;52.850;6.970;2024-03-08T10:41:53;6.03;;;2.80;;
52202;SDS011;38173;52.850;6.970;2024-03-08T10:49:38;6.90;;;2.92;;
52202;SDS011;38173;52.850;6.970;2024-03-08T10:52:08;5.68;;;2.45;;
52202;SDS011;38173;52.850;6.970;2024-03-08T10:54:36;6.05;;;2.45;;
52202;SDS011;38173;52.850;6.970;2024-03-08T10:57:05;8.75;;;3.10;;
52202;SDS011;38173;52.850;6.970;2024-03-08T10:59:34;6.90;;;2.65;;
52202;SDS011;38173;52.850;6.970;2024-03-08T11:02:00;8.35;;;2.78;;
52202;SDS011;38173;52.850;6.970;2024-03-08T11:04:27;7.88;;;3.08;;
52202;SDS011;38173;52.850;6.970;2024-03-08T11:06:56;6.10;;;2.53;;
52202;SDS011;38173;52.850;6.970;2024-03-08T11:09:32;7.55;;;2.95;;
52202;SDS011;38173;52.850;6.970;2024-03-08T11:14:49;5.78;;;2.20;;
52202;SDS011;38173;52.850;6.970;2024-03-08T11:17:16;6.20;;;2.22;;
52202;SDS011;38173;52.850;6.970;2024-03-08T11:19:47;7.30;;;2.53;;
52202;SDS011;38173;52.850;6.970;2024-03-08T11:22:20;8.68;;;2.45;;
52202;SDS011;38173;52.850;6.970;2024-03-08T11:24:52;8.75;;;2.78;;
52202;SDS011;38173;52.850;6.970;2024-03-08T11:27:18;7.03;;;2.80;;
52202;SDS011;38173;52.850;6.970;2024-03-08T11:29:54;8.02;;;3.40;;
52202;SDS011;38173;52.850;6.970;2024-03-08T11:32:27;6.22;;;3.08;;
52202;SDS011;38173;52.850;6.970;2024-03-08T11:34:55;5.07;;;2.13;;
52202;SDS011;38173;52.850;6.970;2024-03-08T11:37:24;7.38;;;2.75;;
52202;SDS011;38173;52.850;6.970;2024-03-08T11:39:53;6.90;;;2.85;;
52202;SDS011;38173;52.850;6.970;2024-03-08T11:44:51;6.93;;;2.83;;
52202;SDS011;38173;52.850;6.970;2024-03-08T11:47:17;4.90;;;2.10;;
52202;SDS011;38173;52.850;6.970;2024-03-08T11:49:44;10.02;;;2.83;;
52202;SDS011;38173;52.850;6.970;2024-03-08T11:52:11;6.15;;;2.65;;
52202;SDS011;38173;52.850;6.970;2024-03-08T11:54:38;7.97;;;2.42;;
52202;SDS011;38173;52.850;6.970;2024-03-08T11:57:04;8.45;;;2.67;;
52202;SDS011;38173;52.850;6.970;2024-03-08T11:59:30;3.70;;;1.63;;
52202;SDS011;38173;52.850;6.970;2024-03-08T12:02:01;4.53;;;1.65;;
52202;SDS011;38173;52.850;6.970;2024-03-08T12:04:31;5.22;;;1.77;;
52202;SDS011;38173;52.850;6.970;2024-03-08T12:07:00;5.47;;;2.25;;
52202;SDS011;38173;52.850;6.970;2024-03-08T12:09:27;7.73;;;2.83;;
52202;SDS011;38173;52.850;6.970;2024-03-08T12:11:53;6.72;;;2.67;;
52202;SDS011;38173;52.850;6.970;2024-03-08T12:14:19;6.20;;;1.95;;
52202;SDS011;38173;52.850;6.970;2024-03-08T12:16:46;7.07;;;2.28;;
52202;SDS011;38173;52.850;6.970;2024-03-08T12:19:13;5.97;;;2.45;;
52202;SDS011;38173;52.850;6.970;2024-03-08T12:21:42;5.90;;;2.28;;
52202;SDS011;38173;52.850;6.970;2024-03-08T12:24:14;5.80;;;2.25;;
52202;SDS011;38173;52.850;6.970;2024-03-08T12:26:44;5.20;;;1.98;;
52202;SDS011;38173;52.850;6.970;2024-03-08T12:31:46;4.45;;;1.52;;
52202;SDS011;38173;52.850;6.970;2024-03-08T12:34:12;4.97;;;2.08;;
52202;SDS011;38173;52.850;6.970;2024-03-08T12:36:48;7.30;;;2.70;;
52202;SDS011;38173;52.850;6.970;2024-03-08T12:39:19;3.30;;;1.55;;
52202;SDS011;38173;52.850;6.970;2024-03-08T12:41:52;7.85;;;3.03;;
52202;SDS011;38173;52.850;6.970;2024-03-08T12:44:18;4.88;;;1.75;;
52202;SDS011;38173;52.850;6.970;2024-03-08T12:46:46;5.80;;;2.45;;
52202;SDS011;38173;52.850;6.970;2024-03-08T12:49:13;5.55;;;2.15;;
52202;SDS011;38173;52.850;6.970;2024-03-08T12:51:43;4.80;;;2.13;;
52202;SDS011;38173;52.850;6.970;2024-03-08T12:54:09;6.60;;;2.60;;
52202;SDS011;38173;52.850;6.970;2024-03-08T12:56:35;6.00;;;2.55;;
52202;SDS011;38173;52.850;6.970;2024-03-08T12:59:03;5.38;;;2.08;;
52202;SDS011;38173;52.850;6.970;2024-03-08T13:03:59;6.25;;;2.33;;
52202;SDS011;38173;52.850;6.970;2024-03-08T13:06:26;5.60;;;2.28;;
52202;SDS011;38173;52.850;6.970;2024-03-08T13:08:54;5.28;;;2.20;;
52202;SDS011;38173;52.850;6.970;2024-03-08T13:11:23;5.82;;;1.98;;
52202;SDS011;38173;52.850;6.970;2024-03-08T13:13:50;4.45;;;1.90;;
52202;SDS011;38173;52.850;6.970;2024-03-08T13:16:18;6.57;;;2.58;;
52202;SDS011;38173;52.850;6.970;2024-03-08T13:18:45;6.30;;;2.55;;
52202;SDS011;38173;52.850;6.970;2024-03-08T13:21:14;4.55;;;1.95;;
52202;SDS011;38173;52.850;6.970;2024-03-08T13:23:43;6.28;;;2.38;;
52202;SDS011;38173;52.850;6.970;2024-03-08T13:26:14;5.25;;;1.90;;
52202;SDS011;38173;52.850;6.970;2024-03-08T13:28:47;5.30;;;2.17;;
52202;SDS011;38173;52.850;6.970;2024-03-08T13:31:20;5.97;;;2.75;;
52202;SDS011;38173;52.850;6.970;2024-03-08T13:33:45;4.40;;;1.88;;
52202;SDS011;38173;52.850;6.970;2024-03-08T13:36:16;7.43;;;2.92;;
52202;SDS011;38173;52.850;6.970;2024-03-08T13:38:46;6.30;;;2.60;;
52202;SDS011;38173;52.850;6.970;2024-03-08T13:41:13;6.53;;;2.88;;
52202;SDS011;38173;52.850;6.970;2024-03-08T13:43:41;6.38;;;2.33;;
52202;SDS011;38173;52.850;6.970;2024-03-08T13:46:11;8.25;;;2.33;;
52202;SDS011;38173;52.850;6.970;2024-03-08T13:48:37;4.43;;;1.80;;
52202;SDS011;38173;52.850;6.970;2024-03-08T13:51:06;6.53;;;2.53;;
52202;SDS011;38173;52.850;6.970;2024-03-08T13:53:33;3.28;;;1.48;;
52202;SDS011;38173;52.850;6.970;2024-03-08T13:56:00;5.03;;;2.22;;
52202;SDS011;38173;52.850;6.970;2024-03-08T13:58:33;6.20;;;2.65;;
52202;SDS011;38173;52.850;6.970;2024-03-08T14:01:01;6.50;;;2.47;;
52202;SDS011;38173;52.850;6.970;2024-03-08T14:03:28;4.78;;;2.13;;
52202;SDS011;38173;52.850;6.970;2024-03-08T14:05:54;5.32;;;2.13;;
52202;SDS011;38173;52.850;6.970;2024-03-08T14:08:20;5.20;;;2.13;;
52202;SDS011;38173;52.850;6.970;2024-03-08T14:10:47;5.88;;;2.20;;
52202;SDS011;38173;52.850;6.970;2024-03-08T14:13:17;4.80;;;2.22;;
52202;SDS011;38173;52.850;6.970;2024-03-08T14:15:44;6.43;;;1.92;;
52202;SDS011;38173;52.850;6.970;2024-03-08T14:18:12;9.63;;;2.70;;
52202;SDS011;38173;52.850;6.970;2024-03-08T14:20:40;8.23;;;2.67;;
52202;SDS011;38173;52.850;6.970;2024-03-08T14:23:07;7.45;;;3.05;;
52202;SDS011;38173;52.850;6.970;2024-03-08T14:25:33;4.03;;;1.65;;
52202;SDS011;38173;52.850;6.970;2024-03-08T14:27:59;8.02;;;2.75;;
52202;SDS011;38173;52.850;6.970;2024-03-08T14:30:29;9.27;;;2.53;;
52202;SDS011;38173;52.850;6.970;2024-03-08T14:32:58;3.70;;;1.67;;
52202;SDS011;38173;52.850;6.970;2024-03-08T14:35:25;5.85;;;1.95;;
52202;SDS011;38173;52.850;6.970;2024-03-08T14:37:51;5.95;;;2.28;;
52202;SDS011;38173;52.850;6.970;2024-03-08T14:40:18;5.18;;;2.08;;
52202;SDS011;38173;52.850;6.970;2024-03-08T14:42:48;5.40;;;1.80;;
52202;SDS011;38173;52.850;6.970;2024-03-08T14:45:16;4.03;;;1.63;;
52202;SDS011;38173;52.850;6.970;2024-03-08T14:47:48;6.18;;;2.78;;
52202;SDS011;38173;52.850;6.970;2024-03-08T14:50:21;6.03;;;1.80;;
52202;SDS011;38173;52.850;6.970;2024-03-08T14:52:48;4.30;;;1.58;;
52202;SDS011;38173;52.850;6.970;2024-03-08T14:55:18;5.32;;;2.03;;
52202;SDS011;38173;52.850;6.970;2024-03-08T14:57:50;7.32;;;2.15;;
52202;SDS011;38173;52.850;6.970;2024-03-08T15:00:16;3.58;;;1.63;;
52202;SDS011;38173;52.850;6.970;2024-03-08T15:02:58;5.38;;;2.05;;
52202;SDS011;38173;52.850;6.970;2024-03-08T15:05:24;3.65;;;2.00;;
52202;SDS011;38173;52.850;6.970;2024-03-08T15:07:53;6.40;;;2.10;;
52202;SDS011;38173;52.850;6.970;2024-03-08T15:10:20;4.30;;;1.90;;